sensor_id;sensor_type;location;lat;lon;timestamp;P1;durP1;ratioP1;P2;durP2;ratioP2
80836;SDS011;70251;60.008;30.404;2024-03-23T00:52:38;1.20;;;0.10;;
80836;SDS011;70251;60.008;30.404;2024-03-23T00:55:03;0.60;;;0.10;;
80836;SDS011;70251;60.008;30.404;2024-03-23T00:57:29;1.30;;;0.10;;
80836;SDS011;70251;60.008;30.404;2024-03-23T00:59:55;1.02;;;0.10;;
80836;SDS011;70251;60.008;30.404;2024-03-23T01:02:20;1.87;;;0.10;;
80836;SDS011;70251;60.008;30.404;2024-03-23T01:04:46;1.70;;;0.20;;
80836;SDS011;70251;60.008;30.404;2024-03-23T01:07:12;1.83;;;0.23;;
80836;SDS011;70251;60.008;30.404;2024-03-23T01:09:37;1.65;;;0.10;;
80836;SDS011;70251;60.008;30.404;2024-03-23T01:12:04;0.88;;;0.10;;
80836;SDS011;70251;60.008;30.404;2024-03-23T01:14:30;0.97;;;0.00;;
80836;SDS011;70251;60.008;30.404;2024-03-23T01:16:56;1.13;;;0.10;;
80836;SDS011;70251;60.008;30.404;2024-03-23T01:19:21;1.70;;;0.37;;
80836;SDS011;70251;60.008;30.404;2024-03-23T01:21:48;2.28;;;0.13;;
80836;SDS011;70251;60.008;30.404;2024-03-23T01:24:14;1.30;;;0.20;;
80836;SDS011;70251;60.008;30.404;2024-03-23T01:26:40;1.47;;;0.20;;
80836;SDS011;70251;60.008;30.404;2024-03-23T01:29:07;1.63;;;0.10;;
80836;SDS011;70251;60.008;30.404;2024-03-23T01:31:33;1.38;;;0.15;;
80836;SDS011;70251;60.008;30.404;2024-03-23T01:33:58;1.47;;;0.20;;
80836;SDS011;70251;60.008;30.404;2024-03-23T01:36:24;1.83;;;0.20;;
80836;SDS011;70251;60.008;30.404;2024-03-23T01:38:50;1.00;;;0.10;;
80836;SDS011;70251;60.008;30.404;2024-03-23T01:41:17;1.48;;;0.20;;
80836;SDS011;70251;60.008;30.404;2024-03-23T01:43:43;1.60;;;0.15;;
80836;SDS011;70251;60.008;30.404;2024-03-23T01:46:08;1.83;;;0.13;;
80836;SDS011;70251;60.008;30.404;2024-03-23T01:48:34;1.45;;;0.10;;
80836;SDS011;70251;60.008;30.404;2024-03-23T01:51:00;1.17;;;0.20;;
80836;SDS011;70251;60.008;30.404;2024-03-23T01:53:26;1.58;;;0.20;;
80836;SDS011;70251;60.008;30.404;2024-03-23T01:55:52;1.38;;;0.10;;
80836;SDS011;70251;60.008;30.404;2024-03-23T01:58:17;1.20;;;0.10;;
80836;SDS011;70251;60.008;30.404;2024-03-23T02:03:27;0.98;;;0.10;;
80836;SDS011;70251;60.008;30.404;2024-03-23T02:05:54;0.53;;;0.07;;
80836;SDS011;70251;60.008;30.404;2024-03-23T02:08:21;0.88;;;0.10;;
80836;SDS011;70251;60.008;30.404;2024-03-23T02:10:48;0.40;;;0.00;;
80836;SDS011;70251;60.008;30.404;2024-03-23T02:13:15;1.95;;;0.10;;
80836;SDS011;70251;60.008;30.404;2024-03-23T02:15:41;1.63;;;0.10;;
80836;SDS011;70251;60.008;30.404;2024-03-23T02:18:27;2.00;;;0.20;;
80836;SDS011;70251;60.008;30.404;2024-03-23T02:20:53;1.02;;;0.10;;
80836;SDS011;70251;60.008;30.404;2024-03-23T02:23:18;1.33;;;0.17;;
80836;SDS011;70251;60.008;30.404;2024-03-23T02:25:44;2.75;;;0.30;;
80836;SDS011;70251;60.008;30.404;2024-03-23T02:28:10;0.90;;;0.10;;
80836;SDS011;70251;60.008;30.404;2024-03-23T02:30:36;1.67;;;0.20;;
80836;SDS011;70251;60.008;30.404;2024-03-23T02:33:02;1.83;;;0.15;;
80836;SDS011;70251;60.008;30.404;2024-03-23T02:35:28;2.03;;;0.20;;
80836;SDS011;70251;60.008;30.404;2024-03-23T02:37:54;2.65;;;0.20;;
80836;SDS011;70251;60.008;30.404;2024-03-23T02:40:22;2.55;;;0.20;;
80836;SDS011;70251;60.008;30.404;2024-03-23T02:42:48;3.55;;;0.40;;
80836;SDS011;70251;60.008;30.404;2024-03-23T02:45:14;1.80;;;0.20;;
80836;SDS011;70251;60.008;30.404;2024-03-23T02:47:40;2.45;;;0.20;;
80836;SDS011;70251;60.008;30.404;2024-03-23T02:52:50;1.00;;;0.10;;
80836;SDS011;70251;60.008;30.404;2024-03-23T02:55:15;0.75;;;0.10;;
80836;SDS011;70251;60.008;30.404;2024-03-23T02:57:43;0.83;;;0.10;;
80836;SDS011;70251;60.008;30.404;2024-03-23T03:00:09;2.03;;;0.20;;
80836;SDS011;70251;60.008;30.404;2024-03-23T03:02:36;1.92;;;0.32;;
80836;SDS011;70251;60.008;30.404;2024-03-23T03:05:03;2.13;;;0.10;;
80836;SDS011;70251;60.008;30.404;2024-03-23T03:07:30;1.38;;;0.10;;
80836;SDS011;70251;60.008;30.404;2024-03-23T03:09:56;0.93;;;0.10;;
80836;SDS011;70251;60.008;30.404;2024-03-23T03:12:22;1.25;;;0.10;;
80836;SDS011;70251;60.008;30.404;2024-03-23T03:14:48;0.47;;;0.10;;
80836;SDS011;70251;60.008;30.404;2024-03-23T03:17:13;0.65;;;0.10;;
80836;SDS011;70251;60.008;30.404;2024-03-23T03:19:40;3.85;;;0.20;;
80836;SDS011;70251;60.008;30.404;2024-03-23T03:22:05;0.77;;;0.10;;
80836;SDS011;70251;60.008;30.404;2024-03-23T03:24:31;0.98;;;0.28;;
80836;SDS011;70251;60.008;30.404;2024-03-23T03:26:57;0.93;;;0.10;;
80836;SDS011;70251;60.008;30.404;2024-03-23T03:29:25;0.45;;;0.05;;
80836;SDS011;70251;60.008;30.404;2024-03-23T03:31:51;1.33;;;0.00;;
80836;SDS011;70251;60.008;30.404;2024-03-23T03:34:16;0.65;;;0.10;;
80836;SDS011;70251;60.008;30.404;2024-03-23T03:36:42;0.93;;;0.10;;
80836;SDS011;70251;60.008;30.404;2024-03-23T03:39:07;0.88;;;0.10;;
80836;SDS011;70251;60.008;30.404;2024-03-23T03:41:33;0.60;;;0.10;;
80836;SDS011;70251;60.008;30.404;2024-03-23T03:43:59;0.27;;;0.00;;
80836;SDS011;70251;60.008;30.404;2024-03-23T03:46:30;1.70;;;0.10;;
80836;SDS011;70251;60.008;30.404;2024-03-23T03:48:56;0.47;;;0.00;;
80836;SDS011;70251;60.008;30.404;2024-03-23T03:51:21;1.02;;;0.10;;
80836;SDS011;70251;60.008;30.404;2024-03-23T03:53:47;1.13;;;0.10;;
80836;SDS011;70251;60.008;30.404;2024-03-23T03:56:13;0.73;;;0.03;;
80836;SDS011;70251;60.008;30.404;2024-03-23T03:58:38;2.42;;;0.20;;
80836;SDS011;70251;60.008;30.404;2024-03-23T04:01:05;1.92;;;0.55;;
80836;SDS011;70251;60.008;30.404;2024-03-23T04:03:31;2.33;;;0.43;;
80836;SDS011;70251;60.008;30.404;2024-03-23T04:05:57;2.47;;;0.10;;
80836;SDS011;70251;60.008;30.404;2024-03-23T04:08:22;1.53;;;0.20;;
80836;SDS011;70251;60.008;30.404;2024-03-23T04:10:49;0.60;;;0.05;;
80836;SDS011;70251;60.008;30.404;2024-03-23T04:13:15;0.80;;;0.00;;
80836;SDS011;70251;60.008;30.404;2024-03-23T04:15:41;0.65;;;0.00;;
80836;SDS011;70251;60.008;30.404;2024-03-23T04:18:07;1.17;;;0.20;;
80836;SDS011;70251;60.008;30.404;2024-03-23T04:20:33;0.65;;;0.00;;
80836;SDS011;70251;60.008;30.404;2024-03-23T04:22:59;0.60;;;0.00;;
80836;SDS011;70251;60.008;30.404;2024-03-23T04:25:25;0.82;;;0.10;;
80836;SDS011;70251;60.008;30.404;2024-03-23T04:27:51;0.93;;;0.10;;
80836;SDS011;70251;60.008;30.404;2024-03-23T04:30:17;1.73;;;0.23;;
80836;SDS011;70251;60.008;30.404;2024-03-23T04:32:43;1.10;;;0.10;;
80836;SDS011;70251;60.008;30.404;2024-03-23T04:35:09;0.50;;;0.00;;
80836;SDS011;70251;60.008;30.404;2024-03-23T04:37:35;1.40;;;0.10;;
80836;SDS011;70251;60.008;30.404;2024-03-23T04:40:02;0.80;;;0.10;;
80836;SDS011;70251;60.008;30.404;2024-03-23T04:42:31;0.60;;;0.10;;
80836;SDS011;70251;60.008;30.404;2024-03-23T04:44:56;0.82;;;0.10;;
80836;SDS011;70251;60.008;30.404;2024-03-23T04:47:24;0.63;;;0.00;;
80836;SDS011;70251;60.008;30.404;2024-03-23T04:49:50;1.00;;;0.10;;
80836;SDS011;70251;60.008;30.404;2024-03-23T04:52:16;1.10;;;0.10;;
80836;SDS011;70251;60.008;30.404;2024-03-23T04:55:01;2.53;;;0.13;;
80836;SDS011;70251;60.008;30.404;2024-03-23T04:57:26;2.08;;;0.20;;
80836;SDS011;70251;60.008;30.404;2024-03-23T04:59:52;1.37;;;0.20;;
80836;SDS011;70251;60.008;30.404;2024-03-23T05:02:20;2.72;;;0.17;;
80836;SDS011;70251;60.008;30.404;2024-03-23T05:04:46;2.97;;;0.30;;
80836;SDS011;70251;60.008;30.404;2024-03-23T05:07:12;1.45;;;0.40;;
80836;SDS011;70251;60.008;30.404;2024-03-23T05:09:37;1.80;;;0.30;;
80836;SDS011;70251;60.008;30.404;2024-03-23T05:12:03;1.50;;;0.20;;
80836;SDS011;70251;60.008;30.404;2024-03-23T05:14:29;3.22;;;0.40;;
80836;SDS011;70251;60.008;30.404;2024-03-23T05:17:05;1.17;;;0.23;;
80836;SDS011;70251;60.008;30.404;2024-03-23T05:19:30;3.03;;;0.40;;
80836;SDS011;70251;60.008;30.404;2024-03-23T05:21:56;2.07;;;0.33;;
80836;SDS011;70251;60.008;30.404;2024-03-23T05:24:21;2.57;;;0.30;;
80836;SDS011;70251;60.008;30.404;2024-03-23T05:26:47;5.53;;;0.50;;
80836;SDS011;70251;60.008;30.404;2024-03-23T05:29:13;3.03;;;0.40;;
80836;SDS011;70251;60.008;30.404;2024-03-23T05:31:38;3.80;;;0.68;;
80836;SDS011;70251;60.008;30.404;2024-03-23T05:34:07;5.43;;;0.65;;
80836;SDS011;70251;60.008;30.404;2024-03-23T05:36:33;3.90;;;0.73;;
80836;SDS011;70251;60.008;30.404;2024-03-23T05:38:58;4.80;;;0.80;;
80836;SDS011;70251;60.008;30.404;2024-03-23T05:41:24;3.03;;;0.47;;
80836;SDS011;70251;60.008;30.404;2024-03-23T05:43:50;8.87;;;0.40;;
80836;SDS011;70251;60.008;30.404;2024-03-23T05:46:15;7.37;;;0.50;;
80836;SDS011;70251;60.008;30.404;2024-03-23T05:48:41;1.50;;;0.10;;
80836;SDS011;70251;60.008;30.404;2024-03-23T05:51:06;6.57;;;1.20;;
80836;SDS011;70251;60.008;30.404;2024-03-23T05:53:33;4.15;;;0.65;;
80836;SDS011;70251;60.008;30.404;2024-03-23T05:56:02;4.18;;;0.70;;
80836;SDS011;70251;60.008;30.404;2024-03-23T05:58:32;5.28;;;0.82;;
80836;SDS011;70251;60.008;30.404;2024-03-23T06:00:58;6.37;;;0.80;;
80836;SDS011;70251;60.008;30.404;2024-03-23T06:03:26;5.63;;;0.90;;
80836;SDS011;70251;60.008;30.404;2024-03-23T06:05:52;4.20;;;0.95;;
80836;SDS011;70251;60.008;30.404;2024-03-23T06:08:20;4.30;;;1.00;;
80836;SDS011;70251;60.008;30.404;2024-03-23T06:10:47;6.57;;;1.13;;
80836;SDS011;70251;60.008;30.404;2024-03-23T06:13:13;6.03;;;0.80;;
80836;SDS011;70251;60.008;30.404;2024-03-23T06:15:39;5.05;;;1.42;;
80836;SDS011;70251;60.008;30.404;2024-03-23T06:18:05;7.17;;;0.93;;
80836;SDS011;70251;60.008;30.404;2024-03-23T06:20:32;4.20;;;0.80;;
80836;SDS011;70251;60.008;30.404;2024-03-23T06:22:58;7.60;;;1.30;;
80836;SDS011;70251;60.008;30.404;2024-03-23T06:25:25;6.72;;;1.00;;
80836;SDS011;70251;60.008;30.404;2024-03-23T06:27:50;4.70;;;0.83;;
80836;SDS011;70251;60.008;30.404;2024-03-23T06:30:19;4.22;;;0.60;;
80836;SDS011;70251;60.008;30.404;2024-03-23T06:32:45;4.63;;;0.80;;
80836;SDS011;70251;60.008;30.404;2024-03-23T06:35:10;7.47;;;0.77;;
80836;SDS011;70251;60.008;30.404;2024-03-23T06:37:36;4.38;;;0.95;;
80836;SDS011;70251;60.008;30.404;2024-03-23T06:40:04;9.13;;;1.70;;
80836;SDS011;70251;60.008;30.404;2024-03-23T06:42:33;5.70;;;0.73;;
80836;SDS011;70251;60.008;30.404;2024-03-23T06:44:59;5.75;;;1.20;;
80836;SDS011;70251;60.008;30.404;2024-03-23T06:47:25;3.78;;;0.68;;
80836;SDS011;70251;60.008;30.404;2024-03-23T06:49:51;6.17;;;1.23;;
80836;SDS011;70251;60.008;30.404;2024-03-23T06:52:16;6.15;;;1.20;;
80836;SDS011;70251;60.008;30.404;2024-03-23T06:54:42;5.97;;;0.98;;
80836;SDS011;70251;60.008;30.404;2024-03-23T06:57:10;7.47;;;1.10;;
80836;SDS011;70251;60.008;30.404;2024-03-23T06:59:45;4.65;;;1.02;;
80836;SDS011;70251;60.008;30.404;2024-03-23T07:02:11;6.35;;;1.08;;
80836;SDS011;70251;60.008;30.404;2024-03-23T07:04:37;7.20;;;1.23;;
80836;SDS011;70251;60.008;30.404;2024-03-23T07:07:04;8.65;;;1.35;;
80836;SDS011;70251;60.008;30.404;2024-03-23T07:09:30;9.30;;;1.10;;
80836;SDS011;70251;60.008;30.404;2024-03-23T07:11:56;5.55;;;0.80;;
80836;SDS011;70251;60.008;30.404;2024-03-23T07:14:23;8.57;;;0.90;;
80836;SDS011;70251;60.008;30.404;2024-03-23T07:16:49;7.05;;;0.60;;
80836;SDS011;70251;60.008;30.404;2024-03-23T07:19:15;3.95;;;0.47;;
80836;SDS011;70251;60.008;30.404;2024-03-23T07:21:45;4.72;;;0.60;;
80836;SDS011;70251;60.008;30.404;2024-03-23T07:24:11;5.72;;;0.52;;
80836;SDS011;70251;60.008;30.404;2024-03-23T07:26:37;2.93;;;0.30;;
80836;SDS011;70251;60.008;30.404;2024-03-23T07:29:06;2.55;;;0.40;;
80836;SDS011;70251;60.008;30.404;2024-03-23T07:31:32;3.63;;;0.47;;
80836;SDS011;70251;60.008;30.404;2024-03-23T07:33:57;3.70;;;0.63;;
80836;SDS011;70251;60.008;30.404;2024-03-23T07:36:29;6.47;;;0.88;;
80836;SDS011;70251;60.008;30.404;2024-03-23T07:38:55;3.38;;;0.40;;
80836;SDS011;70251;60.008;30.404;2024-03-23T07:41:23;4.78;;;0.40;;
80836;SDS011;70251;60.008;30.404;2024-03-23T07:43:53;6.20;;;0.53;;
80836;SDS011;70251;60.008;30.404;2024-03-23T07:46:24;7.25;;;0.90;;
80836;SDS011;70251;60.008;30.404;2024-03-23T07:48:53;5.60;;;0.63;;
80836;SDS011;70251;60.008;30.404;2024-03-23T07:51:22;4.32;;;0.57;;
80836;SDS011;70251;60.008;30.404;2024-03-23T07:53:48;3.67;;;0.43;;
80836;SDS011;70251;60.008;30.404;2024-03-23T07:56:25;4.50;;;0.90;;
80836;SDS011;70251;60.008;30.404;2024-03-23T07:58:58;6.70;;;0.93;;
80836;SDS011;70251;60.008;30.404;2024-03-23T08:09:24;4.53;;;0.60;;
80836;SDS011;70251;60.008;30.404;2024-03-23T08:11:50;3.00;;;0.50;;
80836;SDS011;70251;60.008;30.404;2024-03-23T08:17:12;5.10;;;0.60;;
80836;SDS011;70251;60.008;30.404;2024-03-23T08:19:38;4.67;;;0.83;;
80836;SDS011;70251;60.008;30.404;2024-03-23T08:22:09;4.60;;;0.80;;
80836;SDS011;70251;60.008;30.404;2024-03-23T08:24:37;6.15;;;1.30;;
80836;SDS011;70251;60.008;30.404;2024-03-23T08:27:07;6.00;;;1.30;;
80836;SDS011;70251;60.008;30.404;2024-03-23T08:29:48;6.82;;;1.23;;
80836;SDS011;70251;60.008;30.404;2024-03-23T08:32:24;3.90;;;0.70;;
80836;SDS011;70251;60.008;30.404;2024-03-23T08:35:03;4.80;;;0.90;;
80836;SDS011;70251;60.008;30.404;2024-03-23T08:37:30;3.47;;;0.70;;
80836;SDS011;70251;60.008;30.404;2024-03-23T08:39:59;4.85;;;1.20;;
80836;SDS011;70251;60.008;30.404;2024-03-23T08:42:25;4.97;;;0.77;;
80836;SDS011;70251;60.008;30.404;2024-03-23T08:44:52;4.75;;;1.10;;
80836;SDS011;70251;60.008;30.404;2024-03-23T08:47:21;3.95;;;1.23;;
80836;SDS011;70251;60.008;30.404;2024-03-23T08:49:47;2.70;;;0.75;;
80836;SDS011;70251;60.008;30.404;2024-03-23T08:52:16;4.07;;;0.98;;
80836;SDS011;70251;60.008;30.404;2024-03-23T08:54:42;5.30;;;1.63;;
80836;SDS011;70251;60.008;30.404;2024-03-23T08:57:08;4.28;;;0.68;;
80836;SDS011;70251;60.008;30.404;2024-03-23T08:59:35;3.37;;;0.73;;
80836;SDS011;70251;60.008;30.404;2024-03-23T09:02:03;3.22;;;0.82;;
80836;SDS011;70251;60.008;30.404;2024-03-23T09:04:30;4.22;;;0.90;;
80836;SDS011;70251;60.008;30.404;2024-03-23T09:10:46;3.72;;;0.70;;
80836;SDS011;70251;60.008;30.404;2024-03-23T09:13:13;7.07;;;1.40;;
80836;SDS011;70251;60.008;30.404;2024-03-23T09:15:49;4.78;;;1.40;;
80836;SDS011;70251;60.008;30.404;2024-03-23T09:18:16;5.15;;;1.02;;
80836;SDS011;70251;60.008;30.404;2024-03-23T09:20:43;5.32;;;1.48;;
80836;SDS011;70251;60.008;30.404;2024-03-23T09:23:08;5.95;;;1.15;;
80836;SDS011;70251;60.008;30.404;2024-03-23T09:25:39;4.90;;;1.00;;
80836;SDS011;70251;60.008;30.404;2024-03-23T09:28:15;7.82;;;1.50;;
80836;SDS011;70251;60.008;30.404;2024-03-23T09:31:32;4.53;;;1.33;;
80836;SDS011;70251;60.008;30.404;2024-03-23T09:34:01;2.85;;;0.60;;
80836;SDS011;70251;60.008;30.404;2024-03-23T09:36:42;5.18;;;1.00;;
80836;SDS011;70251;60.008;30.404;2024-03-23T09:39:10;3.93;;;0.67;;
80836;SDS011;70251;60.008;30.404;2024-03-23T09:41:36;6.18;;;1.42;;
80836;SDS011;70251;60.008;30.404;2024-03-23T09:44:02;5.22;;;1.10;;
80836;SDS011;70251;60.008;30.404;2024-03-23T09:46:35;5.85;;;1.48;;
80836;SDS011;70251;60.008;30.404;2024-03-23T09:49:05;5.55;;;1.58;;
80836;SDS011;70251;60.008;30.404;2024-03-23T09:51:50;3.03;;;0.73;;
80836;SDS011;70251;60.008;30.404;2024-03-23T09:55:40;5.03;;;1.23;;
80836;SDS011;70251;60.008;30.404;2024-03-23T09:58:16;5.13;;;1.25;;
80836;SDS011;70251;60.008;30.404;2024-03-23T10:00:47;6.72;;;1.67;;
80836;SDS011;70251;60.008;30.404;2024-03-23T10:03:16;5.67;;;1.67;;
80836;SDS011;70251;60.008;30.404;2024-03-23T10:08:52;5.03;;;1.20;;
80836;SDS011;70251;60.008;30.404;2024-03-23T10:11:20;3.42;;;0.60;;
80836;SDS011;70251;60.008;30.404;2024-03-23T10:13:46;3.00;;;0.90;;
80836;SDS011;70251;60.008;30.404;2024-03-23T10:16:22;4.30;;;0.98;;
80836;SDS011;70251;60.008;30.404;2024-03-23T10:18:54;4.55;;;1.00;;
80836;SDS011;70251;60.008;30.404;2024-03-23T10:21:25;4.93;;;0.70;;
80836;SDS011;70251;60.008;30.404;2024-03-23T10:24:32;4.95;;;1.20;;
80836;SDS011;70251;60.008;30.404;2024-03-23T10:26:58;2.27;;;0.30;;
80836;SDS011;70251;60.008;30.404;2024-03-23T10:29:25;1.52;;;0.30;;
80836;SDS011;70251;60.008;30.404;2024-03-23T10:32:07;2.53;;;0.28;;
80836;SDS011;70251;60.008;30.404;2024-03-23T10:34:38;2.65;;;0.40;;
80836;SDS011;70251;60.008;30.404;2024-03-23T10:37:28;2.10;;;0.40;;
80836;SDS011;70251;60.008;30.404;2024-03-23T10:40:51;4.13;;;0.70;;
80836;SDS011;70251;60.008;30.404;2024-03-23T10:43:23;2.83;;;0.50;;
80836;SDS011;70251;60.008;30.404;2024-03-23T10:45:56;2.85;;;0.30;;
80836;SDS011;70251;60.008;30.404;2024-03-23T10:48:23;2.33;;;0.30;;
80836;SDS011;70251;60.008;30.404;2024-03-23T10:51:04;2.07;;;0.50;;
80836;SDS011;70251;60.008;30.404;2024-03-23T10:53:36;1.52;;;0.38;;
80836;SDS011;70251;60.008;30.404;2024-03-23T10:56:03;2.58;;;0.30;;
80836;SDS011;70251;60.008;30.404;2024-03-23T10:58:38;3.28;;;0.52;;
80836;SDS011;70251;60.008;30.404;2024-03-23T11:01:12;2.47;;;0.35;;
80836;SDS011;70251;60.008;30.404;2024-03-23T11:14:02;1.38;;;0.30;;
80836;SDS011;70251;60.008;30.404;2024-03-23T11:20:01;0.73;;;0.20;;
80836;SDS011;70251;60.008;30.404;2024-03-23T11:22:42;1.33;;;0.17;;
80836;SDS011;70251;60.008;30.404;2024-03-23T11:25:17;1.77;;;0.20;;
80836;SDS011;70251;60.008;30.404;2024-03-23T11:27:47;1.35;;;0.30;;
80836;SDS011;70251;60.008;30.404;2024-03-23T11:32:45;1.05;;;0.10;;
80836;SDS011;70251;60.008;30.404;2024-03-23T11:35:31;1.60;;;0.20;;
80836;SDS011;70251;60.008;30.404;2024-03-23T11:38:01;2.90;;;0.30;;
80836;SDS011;70251;60.008;30.404;2024-03-23T11:40:31;1.23;;;0.20;;
80836;SDS011;70251;60.008;30.404;2024-03-23T11:42:59;1.80;;;0.30;;
80836;SDS011;70251;60.008;30.404;2024-03-23T11:45:28;2.10;;;0.30;;
80836;SDS011;70251;60.008;30.404;2024-03-23T11:48:41;1.63;;;0.25;;
80836;SDS011;70251;60.008;30.404;2024-03-23T11:51:19;1.63;;;0.30;;
80836;SDS011;70251;60.008;30.404;2024-03-23T11:53:51;1.80;;;0.28;;
80836;SDS011;70251;60.008;30.404;2024-03-23T11:57:02;1.87;;;0.20;;
80836;SDS011;70251;60.008;30.404;2024-03-23T11:59:37;2.45;;;0.38;;
80836;SDS011;70251;60.008;30.404;2024-03-23T12:02:10;2.35;;;0.40;;
80836;SDS011;70251;60.008;30.404;2024-03-23T12:04:38;2.22;;;0.40;;
80836;SDS011;70251;60.008;30.404;2024-03-23T12:10:02;1.80;;;0.20;;
80836;SDS011;70251;60.008;30.404;2024-03-23T12:13:02;1.98;;;0.32;;
80836;SDS011;70251;60.008;30.404;2024-03-23T12:15:33;2.58;;;0.50;;
80836;SDS011;70251;60.008;30.404;2024-03-23T12:18:09;1.65;;;0.40;;
80836;SDS011;70251;60.008;30.404;2024-03-23T12:20:37;2.05;;;0.50;;
80836;SDS011;70251;60.008;30.404;2024-03-23T12:23:28;3.43;;;0.57;;
80836;SDS011;70251;60.008;30.404;2024-03-23T12:25:58;2.13;;;0.50;;
80836;SDS011;70251;60.008;30.404;2024-03-23T12:28:27;3.45;;;0.50;;
80836;SDS011;70251;60.008;30.404;2024-03-23T12:30:54;4.60;;;0.68;;
80836;SDS011;70251;60.008;30.404;2024-03-23T12:33:20;3.73;;;0.63;;
80836;SDS011;70251;60.008;30.404;2024-03-23T12:35:48;2.10;;;0.43;;
80836;SDS011;70251;60.008;30.404;2024-03-23T12:38:26;3.20;;;0.50;;
80836;SDS011;70251;60.008;30.404;2024-03-23T12:41:13;1.35;;;0.20;;
80836;SDS011;70251;60.008;30.404;2024-03-23T12:43:44;2.65;;;0.43;;
80836;SDS011;70251;60.008;30.404;2024-03-23T12:46:42;2.40;;;0.50;;
80836;SDS011;70251;60.008;30.404;2024-03-23T12:49:08;1.90;;;0.47;;
80836;SDS011;70251;60.008;30.404;2024-03-23T12:51:37;1.67;;;0.30;;
80836;SDS011;70251;60.008;30.404;2024-03-23T12:54:03;4.75;;;0.57;;
80836;SDS011;70251;60.008;30.404;2024-03-23T12:56:29;1.70;;;0.30;;
80836;SDS011;70251;60.008;30.404;2024-03-23T12:58:55;2.35;;;0.30;;
80836;SDS011;70251;60.008;30.404;2024-03-23T13:01:23;2.08;;;0.40;;
80836;SDS011;70251;60.008;30.404;2024-03-23T13:03:49;1.48;;;0.20;;
80836;SDS011;70251;60.008;30.404;2024-03-23T13:06:31;3.88;;;0.43;;
80836;SDS011;70251;60.008;30.404;2024-03-23T13:09:17;5.03;;;0.53;;
80836;SDS011;70251;60.008;30.404;2024-03-23T13:11:43;1.77;;;0.20;;
80836;SDS011;70251;60.008;30.404;2024-03-23T13:14:13;3.53;;;0.50;;
80836;SDS011;70251;60.008;30.404;2024-03-23T13:16:42;2.95;;;0.30;;
80836;SDS011;70251;60.008;30.404;2024-03-23T13:19:07;2.07;;;0.40;;
80836;SDS011;70251;60.008;30.404;2024-03-23T13:21:33;2.28;;;0.35;;
80836;SDS011;70251;60.008;30.404;2024-03-23T13:24:06;3.50;;;0.60;;
80836;SDS011;70251;60.008;30.404;2024-03-23T13:26:32;2.72;;;0.25;;
80836;SDS011;70251;60.008;30.404;2024-03-23T13:28:59;2.73;;;0.53;;
80836;SDS011;70251;60.008;30.404;2024-03-23T13:31:25;2.97;;;0.47;;
80836;SDS011;70251;60.008;30.404;2024-03-23T13:33:51;2.17;;;0.40;;
80836;SDS011;70251;60.008;30.404;2024-03-23T13:36:16;3.35;;;0.60;;
80836;SDS011;70251;60.008;30.404;2024-03-23T13:38:48;4.40;;;1.00;;
80836;SDS011;70251;60.008;30.404;2024-03-23T13:41:13;1.60;;;0.27;;
80836;SDS011;70251;60.008;30.404;2024-03-23T13:43:39;1.17;;;0.20;;
80836;SDS011;70251;60.008;30.404;2024-03-23T13:46:05;2.35;;;0.50;;
80836;SDS011;70251;60.008;30.404;2024-03-23T13:48:31;3.53;;;0.47;;
80836;SDS011;70251;60.008;30.404;2024-03-23T13:51:00;3.83;;;0.98;;
80836;SDS011;70251;60.008;30.404;2024-03-23T13:53:26;2.23;;;0.40;;
80836;SDS011;70251;60.008;30.404;2024-03-23T13:55:53;4.50;;;0.60;;
80836;SDS011;70251;60.008;30.404;2024-03-23T13:58:19;1.83;;;0.30;;
80836;SDS011;70251;60.008;30.404;2024-03-23T14:00:45;3.45;;;0.43;;
80836;SDS011;70251;60.008;30.404;2024-03-23T14:03:11;3.47;;;0.47;;
80836;SDS011;70251;60.008;30.404;2024-03-23T14:05:38;2.95;;;0.40;;
80836;SDS011;70251;60.008;30.404;2024-03-23T14:08:07;1.83;;;0.10;;
80836;SDS011;70251;60.008;30.404;2024-03-23T14:10:33;2.35;;;0.30;;
80836;SDS011;70251;60.008;30.404;2024-03-23T14:13:01;2.60;;;0.40;;
80836;SDS011;70251;60.008;30.404;2024-03-23T14:15:28;1.80;;;0.30;;
80836;SDS011;70251;60.008;30.404;2024-03-23T14:17:56;2.25;;;0.30;;
80836;SDS011;70251;60.008;30.404;2024-03-23T14:20:22;3.22;;;0.40;;
80836;SDS011;70251;60.008;30.404;2024-03-23T14:22:49;3.83;;;0.22;;
80836;SDS011;70251;60.008;30.404;2024-03-23T14:25:16;2.17;;;0.10;;
80836;SDS011;70251;60.008;30.404;2024-03-23T14:27:46;2.40;;;0.53;;
80836;SDS011;70251;60.008;30.404;2024-03-23T14:30:12;1.85;;;0.20;;
80836;SDS011;70251;60.008;30.404;2024-03-23T14:32:39;1.73;;;0.17;;
80836;SDS011;70251;60.008;30.404;2024-03-23T14:35:20;2.20;;;0.28;;
80836;SDS011;70251;60.008;30.404;2024-03-23T14:37:46;3.57;;;0.30;;
80836;SDS011;70251;60.008;30.404;2024-03-23T14:40:12;2.25;;;0.40;;
80836;SDS011;70251;60.008;30.404;2024-03-23T14:42:38;4.35;;;0.50;;
80836;SDS011;70251;60.008;30.404;2024-03-23T14:45:04;2.35;;;0.50;;
80836;SDS011;70251;60.008;30.404;2024-03-23T14:47:30;3.60;;;0.70;;
80836;SDS011;70251;60.008;30.404;2024-03-23T14:49:56;1.97;;;0.20;;
80836;SDS011;70251;60.008;30.404;2024-03-23T14:52:24;4.00;;;0.73;;
80836;SDS011;70251;60.008;30.404;2024-03-23T14:54:50;2.65;;;0.52;;
80836;SDS011;70251;60.008;30.404;2024-03-23T14:57:20;2.93;;;0.83;;
80836;SDS011;70251;60.008;30.404;2024-03-23T14:59:46;5.15;;;0.47;;
80836;SDS011;70251;60.008;30.404;2024-03-23T15:02:12;3.42;;;0.35;;
80836;SDS011;70251;60.008;30.404;2024-03-23T15:04:41;8.38;;;1.10;;
80836;SDS011;70251;60.008;30.404;2024-03-23T15:07:10;4.87;;;0.40;;
80836;SDS011;70251;60.008;30.404;2024-03-23T15:09:36;1.45;;;0.30;;
80836;SDS011;70251;60.008;30.404;2024-03-23T15:12:01;2.67;;;0.47;;
80836;SDS011;70251;60.008;30.404;2024-03-23T15:14:27;3.93;;;0.40;;
80836;SDS011;70251;60.008;30.404;2024-03-23T15:16:53;2.27;;;0.30;;
80836;SDS011;70251;60.008;30.404;2024-03-23T15:19:19;2.43;;;0.57;;
80836;SDS011;70251;60.008;30.404;2024-03-23T15:21:48;5.57;;;0.60;;
80836;SDS011;70251;60.008;30.404;2024-03-23T15:24:32;2.88;;;0.17;;
80836;SDS011;70251;60.008;30.404;2024-03-23T15:27:00;2.30;;;0.30;;
80836;SDS011;70251;60.008;30.404;2024-03-23T15:29:26;3.37;;;0.40;;
80836;SDS011;70251;60.008;30.404;2024-03-23T15:31:52;2.25;;;0.35;;
80836;SDS011;70251;60.008;30.404;2024-03-23T15:34:18;3.17;;;0.50;;
80836;SDS011;70251;60.008;30.404;2024-03-23T15:36:48;2.33;;;0.32;;
80836;SDS011;70251;60.008;30.404;2024-03-23T15:39:18;2.65;;;0.50;;
80836;SDS011;70251;60.008;30.404;2024-03-23T15:41:45;2.25;;;0.30;;
80836;SDS011;70251;60.008;30.404;2024-03-23T15:44:11;5.93;;;0.57;;
80836;SDS011;70251;60.008;30.404;2024-03-23T15:46:47;3.37;;;0.50;;
80836;SDS011;70251;60.008;30.404;2024-03-23T15:49:13;2.75;;;0.47;;
80836;SDS011;70251;60.008;30.404;2024-03-23T15:51:38;1.95;;;0.30;;
80836;SDS011;70251;60.008;30.404;2024-03-23T15:54:08;2.63;;;0.40;;
80836;SDS011;70251;60.008;30.404;2024-03-23T15:56:33;2.38;;;0.40;;
80836;SDS011;70251;60.008;30.404;2024-03-23T15:58:59;2.40;;;0.40;;
80836;SDS011;70251;60.008;30.404;2024-03-23T16:01:31;5.03;;;0.60;;
80836;SDS011;70251;60.008;30.404;2024-03-23T16:04:01;3.85;;;0.75;;
80836;SDS011;70251;60.008;30.404;2024-03-23T16:06:28;3.17;;;0.73;;
80836;SDS011;70251;60.008;30.404;2024-03-23T16:08:53;1.88;;;0.38;;
80836;SDS011;70251;60.008;30.404;2024-03-23T16:11:21;3.70;;;0.50;;
80836;SDS011;70251;60.008;30.404;2024-03-23T16:13:46;1.75;;;0.38;;
80836;SDS011;70251;60.008;30.404;2024-03-23T16:16:16;3.90;;;0.52;;
80836;SDS011;70251;60.008;30.404;2024-03-23T16:18:51;3.40;;;0.70;;